Startpagina
METAR-TAF:

METAR-TAF

Vliegvelden :

Fairbanks, Alaska, Verenigde Staten

breedte: 64-48-14N, lengte: 147-52-34W, hoogte: 132 m

Actueel weer

Dit bericht is 43 minuten geleden gemaakt, om 18:53 UTC
Wind 3 kt uit variabele richting
Temperatuur 18°C
Vochtigheid 52%
Druk 1016 hPa
Zicht: 16.1 km
Verspreide wolken op 4400 ft
Verspreide wolken op 9500 ft
Verspreide wolken op 25000 ft

METAR: PAFA 231853Z VRB03KT 10SM SCT044 SCT095 SCT250 18/08 A3001 RMK AO2 SLP164 T01780083 $

Tijdstip: 11:36 (19:36 UTC)

Verwachting

Dit bericht is 2 uur en het 12 minuten geleden gemaakt, om 17:24 UTC
Verwachting geldig van 23 om 18 UTC tot 24 om 24 UTC
Wind 4 kt uit variabele richting
Zicht: 10 km
Verspreide wolken op 6000 ft
Verspreide wolken op 10000 ft
Gebroken wolken op 20000 ft

TAF: PAFA 231724Z 2318/2424 VRB04KT P6SM SCT060 SCT100 BKN200

Waarnemingen en weersverwachtingen van meer dan 4000 vliegvelden (METAR en TAF).

De beschikbare stations zijn de gele en rode punten op de kaart.

Ga met uw muis naar het station om de naam te zien.

Klik dan om waarnemingen en weersverwachtingen te zien.

kaart wijzigen: klik op de groene knoppen met een zwart kruis om in te zoomen, op de groene knop met een streepje om uit te zoomen of op de groene pijlen voor aangrenzende kaarten.


METAR-TAF: